sensor_id;sensor_type;location;lat;lon;timestamp;P1;durP1;ratioP1;P2;durP2;ratioP2
15931;SDS011;8065;49.520;11.284;2023-09-12T00:00:56;15.23;;;13.63;;
15931;SDS011;8065;49.520;11.284;2023-09-12T00:03:24;15.70;;;14.23;;
15931;SDS011;8065;49.520;11.284;2023-09-12T00:05:52;17.47;;;14.13;;
15931;SDS011;8065;49.520;11.284;2023-09-12T00:08:22;15.53;;;14.13;;
15931;SDS011;8065;49.520;11.284;2023-09-12T00:11:00;16.73;;;14.70;;
15931;SDS011;8065;49.520;11.284;2023-09-12T00:13:30;16.10;;;14.30;;
15931;SDS011;8065;49.520;11.284;2023-09-12T00:15:59;16.53;;;14.23;;
15931;SDS011;8065;49.520;11.284;2023-09-12T00:18:27;15.23;;;13.80;;
15931;SDS011;8065;49.520;11.284;2023-09-12T00:20:55;15.40;;;13.87;;
15931;SDS011;8065;49.520;11.284;2023-09-12T00:23:26;15.23;;;13.73;;
15931;SDS011;8065;49.520;11.284;2023-09-12T00:25:54;14.07;;;12.87;;
15931;SDS011;8065;49.520;11.284;2023-09-12T00:28:25;14.27;;;12.97;;
15931;SDS011;8065;49.520;11.284;2023-09-12T00:30:54;14.83;;;13.47;;
15931;SDS011;8065;49.520;11.284;2023-09-12T00:33:22;14.23;;;12.83;;
15931;SDS011;8065;49.520;11.284;2023-09-12T00:35:50;16.00;;;14.33;;
15931;SDS011;8065;49.520;11.284;2023-09-12T00:38:19;15.67;;;14.07;;
15931;SDS011;8065;49.520;11.284;2023-09-12T00:40:47;15.77;;;14.17;;
15931;SDS011;8065;49.520;11.284;2023-09-12T00:43:15;16.53;;;14.80;;
15931;SDS011;8065;49.520;11.284;2023-09-12T00:45:46;16.63;;;14.93;;
15931;SDS011;8065;49.520;11.284;2023-09-12T00:48:15;15.77;;;14.20;;
15931;SDS011;8065;49.520;11.284;2023-09-12T00:50:44;16.57;;;14.87;;
15931;SDS011;8065;49.520;11.284;2023-09-12T00:53:13;15.90;;;14.30;;
15931;SDS011;8065;49.520;11.284;2023-09-12T00:55:44;15.77;;;14.27;;
15931;SDS011;8065;49.520;11.284;2023-09-12T00:58:16;15.43;;;13.87;;
15931;SDS011;8065;49.520;11.284;2023-09-12T01:00:48;15.80;;;14.10;;
15931;SDS011;8065;49.520;11.284;2023-09-12T01:03:16;16.00;;;13.70;;
15931;SDS011;8065;49.520;11.284;2023-09-12T01:05:44;15.70;;;13.90;;
15931;SDS011;8065;49.520;11.284;2023-09-12T01:08:15;15.03;;;13.53;;
15931;SDS011;8065;49.520;11.284;2023-09-12T01:10:43;14.60;;;13.30;;
15931;SDS011;8065;49.520;11.284;2023-09-12T01:13:14;15.73;;;13.03;;
15931;SDS011;8065;49.520;11.284;2023-09-12T01:15:42;15.47;;;13.33;;
15931;SDS011;8065;49.520;11.284;2023-09-12T01:18:13;15.63;;;13.20;;
15931;SDS011;8065;49.520;11.284;2023-09-12T01:20:42;14.60;;;13.23;;
15931;SDS011;8065;49.520;11.284;2023-09-12T01:23:32;15.40;;;13.87;;
15931;SDS011;8065;49.520;11.284;2023-09-12T01:26:17;15.20;;;13.80;;
15931;SDS011;8065;49.520;11.284;2023-09-12T01:28:55;15.70;;;14.10;;
15931;SDS011;8065;49.520;11.284;2023-09-12T01:31:26;14.73;;;13.37;;
15931;SDS011;8065;49.520;11.284;2023-09-12T01:33:55;14.20;;;12.87;;
15931;SDS011;8065;49.520;11.284;2023-09-12T01:36:24;16.47;;;14.70;;
15931;SDS011;8065;49.520;11.284;2023-09-12T01:38:52;15.73;;;13.40;;
15931;SDS011;8065;49.520;11.284;2023-09-12T01:41:20;14.43;;;13.10;;
15931;SDS011;8065;49.520;11.284;2023-09-12T01:43:49;14.93;;;13.50;;
15931;SDS011;8065;49.520;11.284;2023-09-12T01:46:22;16.57;;;14.10;;
15931;SDS011;8065;49.520;11.284;2023-09-12T01:48:52;14.93;;;13.10;;
15931;SDS011;8065;49.520;11.284;2023-09-12T01:51:23;15.47;;;13.90;;
15931;SDS011;8065;49.520;11.284;2023-09-12T01:53:52;14.60;;;13.03;;
15931;SDS011;8065;49.520;11.284;2023-09-12T01:56:22;15.53;;;14.03;;
15931;SDS011;8065;49.520;11.284;2023-09-12T01:58:51;14.50;;;13.10;;
15931;SDS011;8065;49.520;11.284;2023-09-12T02:01:22;14.90;;;13.50;;
15931;SDS011;8065;49.520;11.284;2023-09-12T02:03:52;15.60;;;14.20;;
15931;SDS011;8065;49.520;11.284;2023-09-12T02:06:20;15.03;;;13.43;;
15931;SDS011;8065;49.520;11.284;2023-09-12T02:08:49;17.53;;;13.70;;
15931;SDS011;8065;49.520;11.284;2023-09-12T02:11:17;15.63;;;14.03;;
15931;SDS011;8065;49.520;11.284;2023-09-12T02:13:45;15.43;;;13.93;;
15931;SDS011;8065;49.520;11.284;2023-09-12T02:16:14;15.97;;;14.47;;
15931;SDS011;8065;49.520;11.284;2023-09-12T02:18:44;15.87;;;13.90;;
15931;SDS011;8065;49.520;11.284;2023-09-12T02:21:13;14.97;;;13.63;;
15931;SDS011;8065;49.520;11.284;2023-09-12T02:23:41;18.77;;;14.30;;
15931;SDS011;8065;49.520;11.284;2023-09-12T02:26:10;15.03;;;13.47;;
15931;SDS011;8065;49.520;11.284;2023-09-12T02:28:38;15.87;;;14.17;;
15931;SDS011;8065;49.520;11.284;2023-09-12T02:31:09;15.07;;;13.57;;
15931;SDS011;8065;49.520;11.284;2023-09-12T02:33:38;14.70;;;13.40;;
15931;SDS011;8065;49.520;11.284;2023-09-12T02:36:09;16.23;;;14.00;;
15931;SDS011;8065;49.520;11.284;2023-09-12T02:38:37;14.97;;;13.43;;
15931;SDS011;8065;49.520;11.284;2023-09-12T02:41:05;14.07;;;12.60;;
15931;SDS011;8065;49.520;11.284;2023-09-12T02:43:34;14.40;;;12.90;;
15931;SDS011;8065;49.520;11.284;2023-09-12T02:46:02;15.57;;;13.77;;
15931;SDS011;8065;49.520;11.284;2023-09-12T02:48:30;16.10;;;13.67;;
15931;SDS011;8065;49.520;11.284;2023-09-12T02:50:58;13.97;;;12.60;;
15931;SDS011;8065;49.520;11.284;2023-09-12T02:53:29;14.83;;;13.00;;
15931;SDS011;8065;49.520;11.284;2023-09-12T02:55:57;14.10;;;12.80;;
15931;SDS011;8065;49.520;11.284;2023-09-12T02:58:26;15.00;;;13.40;;
15931;SDS011;8065;49.520;11.284;2023-09-12T03:00:54;14.30;;;12.83;;
15931;SDS011;8065;49.520;11.284;2023-09-12T03:03:22;14.77;;;13.27;;
15931;SDS011;8065;49.520;11.284;2023-09-12T03:05:56;14.23;;;12.80;;
15931;SDS011;8065;49.520;11.284;2023-09-12T03:08:25;15.07;;;13.43;;
15931;SDS011;8065;49.520;11.284;2023-09-12T03:10:57;15.50;;;13.50;;
15931;SDS011;8065;49.520;11.284;2023-09-12T03:13:28;15.37;;;13.73;;
15931;SDS011;8065;49.520;11.284;2023-09-12T03:15:56;15.03;;;13.57;;
15931;SDS011;8065;49.520;11.284;2023-09-12T03:18:24;15.43;;;13.77;;
15931;SDS011;8065;49.520;11.284;2023-09-12T03:20:52;15.53;;;13.87;;
15931;SDS011;8065;49.520;11.284;2023-09-12T03:23:21;15.80;;;14.17;;
15931;SDS011;8065;49.520;11.284;2023-09-12T03:25:49;14.67;;;13.07;;
15931;SDS011;8065;49.520;11.284;2023-09-12T03:28:20;14.70;;;13.20;;
15931;SDS011;8065;49.520;11.284;2023-09-12T03:30:48;13.70;;;12.47;;
15931;SDS011;8065;49.520;11.284;2023-09-12T03:33:17;15.50;;;13.90;;
15931;SDS011;8065;49.520;11.284;2023-09-12T03:35:45;13.83;;;12.53;;
15931;SDS011;8065;49.520;11.284;2023-09-12T03:38:13;15.27;;;13.73;;
15931;SDS011;8065;49.520;11.284;2023-09-12T03:40:41;14.97;;;13.40;;
15931;SDS011;8065;49.520;11.284;2023-09-12T03:43:10;15.07;;;13.30;;
15931;SDS011;8065;49.520;11.284;2023-09-12T03:45:41;15.03;;;12.70;;
15931;SDS011;8065;49.520;11.284;2023-09-12T03:48:09;14.10;;;12.60;;
15931;SDS011;8065;49.520;11.284;2023-09-12T03:50:37;15.60;;;13.67;;
15931;SDS011;8065;49.520;11.284;2023-09-12T03:53:05;15.40;;;13.80;;
15931;SDS011;8065;49.520;11.284;2023-09-12T03:55:34;14.30;;;12.97;;
15931;SDS011;8065;49.520;11.284;2023-09-12T03:58:03;16.17;;;12.57;;
15931;SDS011;8065;49.520;11.284;2023-09-12T04:00:31;15.03;;;13.53;;
15931;SDS011;8065;49.520;11.284;2023-09-12T04:03:02;13.53;;;12.17;;
15931;SDS011;8065;49.520;11.284;2023-09-12T04:05:31;13.83;;;12.50;;
15931;SDS011;8065;49.520;11.284;2023-09-12T04:08:00;14.37;;;12.93;;
15931;SDS011;8065;49.520;11.284;2023-09-12T04:10:28;15.37;;;13.83;;
15931;SDS011;8065;49.520;11.284;2023-09-12T04:12:57;20.87;;;14.83;;
15931;SDS011;8065;49.520;11.284;2023-09-12T04:15:25;15.80;;;14.20;;
15931;SDS011;8065;49.520;11.284;2023-09-12T04:17:53;16.73;;;13.10;;
15931;SDS011;8065;49.520;11.284;2023-09-12T04:20:24;14.80;;;13.40;;
15931;SDS011;8065;49.520;11.284;2023-09-12T04:22:53;14.90;;;13.40;;
15931;SDS011;8065;49.520;11.284;2023-09-12T04:25:21;14.80;;;13.43;;
15931;SDS011;8065;49.520;11.284;2023-09-12T04:27:49;15.23;;;13.73;;
15931;SDS011;8065;49.520;11.284;2023-09-12T04:30:17;14.67;;;13.17;;
15931;SDS011;8065;49.520;11.284;2023-09-12T04:32:46;14.47;;;12.97;;
15931;SDS011;8065;49.520;11.284;2023-09-12T04:35:14;14.33;;;12.63;;
15931;SDS011;8065;49.520;11.284;2023-09-12T04:37:46;15.07;;;13.50;;
15931;SDS011;8065;49.520;11.284;2023-09-12T04:40:15;14.53;;;13.13;;
15931;SDS011;8065;49.520;11.284;2023-09-12T04:42:43;16.07;;;14.00;;
15931;SDS011;8065;49.520;11.284;2023-09-12T04:45:11;15.00;;;13.50;;
15931;SDS011;8065;49.520;11.284;2023-09-12T04:47:40;14.63;;;13.23;;
15931;SDS011;8065;49.520;11.284;2023-09-12T04:50:09;15.57;;;13.97;;
15931;SDS011;8065;49.520;11.284;2023-09-12T04:52:37;17.03;;;15.33;;
15931;SDS011;8065;49.520;11.284;2023-09-12T04:55:09;15.57;;;14.17;;
15931;SDS011;8065;49.520;11.284;2023-09-12T04:57:37;17.00;;;14.73;;
15931;SDS011;8065;49.520;11.284;2023-09-12T05:00:06;14.53;;;13.13;;
15931;SDS011;8065;49.520;11.284;2023-09-12T05:02:36;17.17;;;14.97;;
15931;SDS011;8065;49.520;11.284;2023-09-12T05:05:04;16.13;;;14.53;;
15931;SDS011;8065;49.520;11.284;2023-09-12T05:07:33;14.87;;;13.37;;
15931;SDS011;8065;49.520;11.284;2023-09-12T05:10:01;15.33;;;14.00;;
15931;SDS011;8065;49.520;11.284;2023-09-12T05:12:33;16.07;;;13.53;;
15931;SDS011;8065;49.520;11.284;2023-09-12T05:15:01;14.70;;;12.27;;
15931;SDS011;8065;49.520;11.284;2023-09-12T05:17:29;16.10;;;13.87;;
15931;SDS011;8065;49.520;11.284;2023-09-12T05:19:57;14.47;;;13.07;;
15931;SDS011;8065;49.520;11.284;2023-09-12T05:22:26;14.20;;;12.53;;
15931;SDS011;8065;49.520;11.284;2023-09-12T05:24:54;14.33;;;12.93;;
15931;SDS011;8065;49.520;11.284;2023-09-12T05:27:22;15.07;;;13.43;;
15931;SDS011;8065;49.520;11.284;2023-09-12T05:29:53;13.80;;;12.50;;
15931;SDS011;8065;49.520;11.284;2023-09-12T05:32:21;15.67;;;13.80;;
15931;SDS011;8065;49.520;11.284;2023-09-12T05:34:50;18.10;;;13.53;;
15931;SDS011;8065;49.520;11.284;2023-09-12T05:37:18;15.83;;;14.30;;
15931;SDS011;8065;49.520;11.284;2023-09-12T05:39:46;14.80;;;13.33;;
15931;SDS011;8065;49.520;11.284;2023-09-12T05:42:15;14.80;;;13.40;;
15931;SDS011;8065;49.520;11.284;2023-09-12T05:44:46;15.40;;;13.67;;
15931;SDS011;8065;49.520;11.284;2023-09-12T05:47:17;15.23;;;13.83;;
15931;SDS011;8065;49.520;11.284;2023-09-12T05:49:45;15.50;;;13.87;;
15931;SDS011;8065;49.520;11.284;2023-09-12T05:52:14;15.97;;;13.97;;
15931;SDS011;8065;49.520;11.284;2023-09-12T05:54:42;15.27;;;13.67;;
15931;SDS011;8065;49.520;11.284;2023-09-12T05:57:10;16.57;;;14.80;;
15931;SDS011;8065;49.520;11.284;2023-09-12T05:59:39;16.00;;;14.40;;
15931;SDS011;8065;49.520;11.284;2023-09-12T06:02:07;15.17;;;13.67;;
15931;SDS011;8065;49.520;11.284;2023-09-12T06:04:38;17.83;;;14.53;;
15931;SDS011;8065;49.520;11.284;2023-09-12T06:07:07;15.70;;;14.03;;
15931;SDS011;8065;49.520;11.284;2023-09-12T06:09:36;15.50;;;13.27;;
15931;SDS011;8065;49.520;11.284;2023-09-12T06:12:04;16.40;;;14.70;;
15931;SDS011;8065;49.520;11.284;2023-09-12T06:14:34;15.63;;;14.13;;
15931;SDS011;8065;49.520;11.284;2023-09-12T06:17:02;14.83;;;13.33;;
15931;SDS011;8065;49.520;11.284;2023-09-12T06:19:31;16.00;;;14.30;;
15931;SDS011;8065;49.520;11.284;2023-09-12T06:22:02;16.70;;;15.00;;
15931;SDS011;8065;49.520;11.284;2023-09-12T06:24:30;16.47;;;14.33;;
15931;SDS011;8065;49.520;11.284;2023-09-12T06:26:58;15.80;;;14.20;;
15931;SDS011;8065;49.520;11.284;2023-09-12T06:29:27;16.83;;;14.27;;
15931;SDS011;8065;49.520;11.284;2023-09-12T06:31:55;15.63;;;14.13;;
15931;SDS011;8065;49.520;11.284;2023-09-12T06:34:23;17.07;;;14.40;;
15931;SDS011;8065;49.520;11.284;2023-09-12T06:36:52;16.83;;;15.07;;
15931;SDS011;8065;49.520;11.284;2023-09-12T06:39:23;15.80;;;14.07;;
15931;SDS011;8065;49.520;11.284;2023-09-12T06:41:52;17.20;;;15.10;;
15931;SDS011;8065;49.520;11.284;2023-09-12T06:44:20;16.40;;;14.70;;
15931;SDS011;8065;49.520;11.284;2023-09-12T06:46:48;17.57;;;15.73;;
15931;SDS011;8065;49.520;11.284;2023-09-12T06:49:16;16.47;;;14.87;;
15931;SDS011;8065;49.520;11.284;2023-09-12T06:51:45;15.17;;;13.67;;
15931;SDS011;8065;49.520;11.284;2023-09-12T06:54:13;16.60;;;14.87;;
15931;SDS011;8065;49.520;11.284;2023-09-12T06:56:44;19.03;;;15.07;;
15931;SDS011;8065;49.520;11.284;2023-09-12T06:59:12;16.67;;;15.07;;
15931;SDS011;8065;49.520;11.284;2023-09-12T07:01:40;18.37;;;14.63;;
15931;SDS011;8065;49.520;11.284;2023-09-12T07:04:10;17.80;;;15.50;;
15931;SDS011;8065;49.520;11.284;2023-09-12T07:06:38;17.50;;;15.30;;
15931;SDS011;8065;49.520;11.284;2023-09-12T07:09:07;15.97;;;14.27;;
15931;SDS011;8065;49.520;11.284;2023-09-12T07:11:38;15.70;;;13.90;;
15931;SDS011;8065;49.520;11.284;2023-09-12T07:14:10;16.67;;;14.53;;
15931;SDS011;8065;49.520;11.284;2023-09-12T07:16:39;16.70;;;14.07;;
15931;SDS011;8065;49.520;11.284;2023-09-12T07:19:07;24.30;;;15.77;;
15931;SDS011;8065;49.520;11.284;2023-09-12T07:21:35;15.60;;;14.13;;
15931;SDS011;8065;49.520;11.284;2023-09-12T07:24:04;16.80;;;13.87;;
15931;SDS011;8065;49.520;11.284;2023-09-12T07:26:32;15.20;;;13.70;;
15931;SDS011;8065;49.520;11.284;2023-09-12T07:29:01;15.43;;;13.87;;
15931;SDS011;8065;49.520;11.284;2023-09-12T07:31:33;16.33;;;14.03;;
15931;SDS011;8065;49.520;11.284;2023-09-12T07:34:01;15.07;;;13.47;;
15931;SDS011;8065;49.520;11.284;2023-09-12T07:36:30;15.27;;;13.77;;
15931;SDS011;8065;49.520;11.284;2023-09-12T07:38:58;14.77;;;12.53;;
15931;SDS011;8065;49.520;11.284;2023-09-12T07:41:26;15.83;;;13.97;;
15931;SDS011;8065;49.520;11.284;2023-09-12T07:43:54;15.07;;;13.50;;
15931;SDS011;8065;49.520;11.284;2023-09-12T07:46:23;16.30;;;13.77;;
15931;SDS011;8065;49.520;11.284;2023-09-12T07:48:53;15.30;;;13.57;;
15931;SDS011;8065;49.520;11.284;2023-09-12T07:51:23;15.37;;;13.87;;
15931;SDS011;8065;49.520;11.284;2023-09-12T07:53:51;15.83;;;13.50;;
15931;SDS011;8065;49.520;11.284;2023-09-12T07:56:19;14.47;;;12.97;;
15931;SDS011;8065;49.520;11.284;2023-09-12T07:58:48;15.03;;;13.10;;
15931;SDS011;8065;49.520;11.284;2023-09-12T08:01:17;15.20;;;13.67;;
15931;SDS011;8065;49.520;11.284;2023-09-12T08:03:45;16.00;;;14.37;;
15931;SDS011;8065;49.520;11.284;2023-09-12T08:06:16;15.60;;;13.97;;
15931;SDS011;8065;49.520;11.284;2023-09-12T08:08:44;18.50;;;14.40;;
15931;SDS011;8065;49.520;11.284;2023-09-12T08:11:12;14.87;;;13.37;;
15931;SDS011;8065;49.520;11.284;2023-09-12T08:13:41;19.67;;;14.77;;
15931;SDS011;8065;49.520;11.284;2023-09-12T08:16:09;16.13;;;13.80;;
15931;SDS011;8065;49.520;11.284;2023-09-12T08:18:38;14.43;;;12.70;;
15931;SDS011;8065;49.520;11.284;2023-09-12T08:21:06;14.50;;;13.00;;
15931;SDS011;8065;49.520;11.284;2023-09-12T08:23:37;15.07;;;13.47;;
15931;SDS011;8065;49.520;11.284;2023-09-12T08:26:05;18.37;;;12.80;;
15931;SDS011;8065;49.520;11.284;2023-09-12T08:28:34;13.47;;;12.07;;
15931;SDS011;8065;49.520;11.284;2023-09-12T08:31:02;13.23;;;10.67;;
15931;SDS011;8065;49.520;11.284;2023-09-12T08:33:30;15.40;;;11.73;;
15931;SDS011;8065;49.520;11.284;2023-09-12T08:35:59;13.40;;;12.10;;
15931;SDS011;8065;49.520;11.284;2023-09-12T08:38:27;13.27;;;10.67;;
15931;SDS011;8065;49.520;11.284;2023-09-12T08:40:58;12.67;;;11.37;;
15931;SDS011;8065;49.520;11.284;2023-09-12T08:43:27;13.60;;;12.17;;
15931;SDS011;8065;49.520;11.284;2023-09-12T08:45:56;13.50;;;12.17;;
15931;SDS011;8065;49.520;11.284;2023-09-12T08:48:24;13.13;;;11.80;;
15931;SDS011;8065;49.520;11.284;2023-09-12T08:50:54;14.20;;;11.70;;
15931;SDS011;8065;49.520;11.284;2023-09-12T08:53:22;11.30;;;10.30;;
15931;SDS011;8065;49.520;11.284;2023-09-12T08:55:51;12.20;;;10.87;;
15931;SDS011;8065;49.520;11.284;2023-09-12T08:58:22;17.53;;;12.23;;
15931;SDS011;8065;49.520;11.284;2023-09-12T09:00:51;12.70;;;10.80;;
15931;SDS011;8065;49.520;11.284;2023-09-12T09:03:20;14.03;;;11.50;;
15931;SDS011;8065;49.520;11.284;2023-09-12T09:05:51;12.80;;;11.50;;
15931;SDS011;8065;49.520;11.284;2023-09-12T09:08:20;15.03;;;11.43;;
15931;SDS011;8065;49.520;11.284;2023-09-12T09:10:56;15.93;;;12.07;;
15931;SDS011;8065;49.520;11.284;2023-09-12T09:13:29;12.03;;;10.73;;
15931;SDS011;8065;49.520;11.284;2023-09-12T09:16:08;11.97;;;10.77;;
15931;SDS011;8065;49.520;11.284;2023-09-12T09:18:51;11.80;;;10.60;;
15931;SDS011;8065;49.520;11.284;2023-09-12T09:21:20;11.90;;;10.70;;
15931;SDS011;8065;49.520;11.284;2023-09-12T09:23:51;11.20;;;9.90;;
15931;SDS011;8065;49.520;11.284;2023-09-12T09:26:20;11.93;;;10.73;;
15931;SDS011;8065;49.520;11.284;2023-09-12T09:31:37;13.87;;;10.53;;
15931;SDS011;8065;49.520;11.284;2023-09-12T09:34:11;12.37;;;10.90;;
15931;SDS011;8065;49.520;11.284;2023-09-12T09:36:40;12.50;;;10.60;;
15931;SDS011;8065;49.520;11.284;2023-09-12T09:39:10;11.00;;;10.00;;
15931;SDS011;8065;49.520;11.284;2023-09-12T09:41:39;11.50;;;10.40;;
15931;SDS011;8065;49.520;11.284;2023-09-12T09:44:08;12.47;;;9.67;;
15931;SDS011;8065;49.520;11.284;2023-09-12T09:46:39;10.77;;;9.67;;
15931;SDS011;8065;49.520;11.284;2023-09-12T09:49:10;10.63;;;9.53;;
15931;SDS011;8065;49.520;11.284;2023-09-12T09:51:40;11.93;;;9.20;;
15931;SDS011;8065;49.520;11.284;2023-09-12T09:54:10;11.17;;;10.00;;
15931;SDS011;8065;49.520;11.284;2023-09-12T09:56:44;11.37;;;10.17;;
15931;SDS011;8065;49.520;11.284;2023-09-12T09:59:14;10.83;;;9.73;;
15931;SDS011;8065;49.520;11.284;2023-09-12T10:01:46;10.60;;;9.60;;
15931;SDS011;8065;49.520;11.284;2023-09-12T10:04:17;10.30;;;9.20;;
15931;SDS011;8065;49.520;11.284;2023-09-12T10:06:46;11.87;;;9.37;;
15931;SDS011;8065;49.520;11.284;2023-09-12T10:09:14;10.57;;;8.43;;
15931;SDS011;8065;49.520;11.284;2023-09-12T10:11:44;10.27;;;9.00;;
15931;SDS011;8065;49.520;11.284;2023-09-12T10:14:15;9.73;;;8.83;;
15931;SDS011;8065;49.520;11.284;2023-09-12T10:16:48;9.63;;;8.67;;
15931;SDS011;8065;49.520;11.284;2023-09-12T10:19:18;9.60;;;8.70;;
15931;SDS011;8065;49.520;11.284;2023-09-12T10:21:48;8.83;;;8.03;;
15931;SDS011;8065;49.520;11.284;2023-09-12T10:24:17;9.33;;;8.43;;
15931;SDS011;8065;49.520;11.284;2023-09-12T10:26:47;9.87;;;8.63;;
15931;SDS011;8065;49.520;11.284;2023-09-12T10:29:17;8.93;;;7.93;;
15931;SDS011;8065;49.520;11.284;2023-09-12T10:31:48;8.73;;;7.83;;
15931;SDS011;8065;49.520;11.284;2023-09-12T10:34:17;9.17;;;7.80;;
15931;SDS011;8065;49.520;11.284;2023-09-12T10:36:47;8.53;;;7.60;;
15931;SDS011;8065;49.520;11.284;2023-09-12T10:39:17;9.23;;;8.13;;
15931;SDS011;8065;49.520;11.284;2023-09-12T10:41:47;8.90;;;8.07;;
15931;SDS011;8065;49.520;11.284;2023-09-12T10:44:17;9.03;;;8.23;;
15931;SDS011;8065;49.520;11.284;2023-09-12T10:46:49;8.70;;;7.80;;
15931;SDS011;8065;49.520;11.284;2023-09-12T10:49:18;8.70;;;7.70;;
15931;SDS011;8065;49.520;11.284;2023-09-12T10:51:47;9.10;;;8.03;;
15931;SDS011;8065;49.520;11.284;2023-09-12T10:54:22;8.77;;;7.87;;
15931;SDS011;8065;49.520;11.284;2023-09-12T10:57:01;8.17;;;7.47;;
15931;SDS011;8065;49.520;11.284;2023-09-12T10:59:31;8.57;;;7.77;;
15931;SDS011;8065;49.520;11.284;2023-09-12T11:05:00;9.50;;;8.30;;
15931;SDS011;8065;49.520;11.284;2023-09-12T11:07:31;9.50;;;8.53;;
15931;SDS011;8065;49.520;11.284;2023-09-12T11:12:45;10.03;;;8.27;;
15931;SDS011;8065;49.520;11.284;2023-09-12T11:15:14;8.97;;;8.07;;
15931;SDS011;8065;49.520;11.284;2023-09-12T11:17:46;8.80;;;7.90;;
15931;SDS011;8065;49.520;11.284;2023-09-12T11:20:15;12.40;;;8.43;;
15931;SDS011;8065;49.520;11.284;2023-09-12T11:22:45;8.70;;;7.90;;
15931;SDS011;8065;49.520;11.284;2023-09-12T11:25:18;8.70;;;7.57;;
15931;SDS011;8065;49.520;11.284;2023-09-12T11:28:02;9.87;;;7.37;;
15931;SDS011;8065;49.520;11.284;2023-09-12T11:30:32;8.97;;;7.13;;
15931;SDS011;8065;49.520;11.284;2023-09-12T11:33:05;7.57;;;6.40;;
15931;SDS011;8065;49.520;11.284;2023-09-12T11:35:38;8.20;;;7.40;;
15931;SDS011;8065;49.520;11.284;2023-09-12T11:38:09;7.70;;;7.00;;
15931;SDS011;8065;49.520;11.284;2023-09-12T11:40:42;7.43;;;6.57;;
15931;SDS011;8065;49.520;11.284;2023-09-12T11:43:19;11.80;;;7.00;;
15931;SDS011;8065;49.520;11.284;2023-09-12T11:45:49;9.60;;;6.17;;
15931;SDS011;8065;49.520;11.284;2023-09-12T11:48:21;7.50;;;6.80;;
15931;SDS011;8065;49.520;11.284;2023-09-12T11:50:51;16.20;;;7.30;;
15931;SDS011;8065;49.520;11.284;2023-09-12T11:53:21;9.20;;;7.07;;
15931;SDS011;8065;49.520;11.284;2023-09-12T11:55:51;7.87;;;6.63;;
15931;SDS011;8065;49.520;11.284;2023-09-12T11:58:22;10.40;;;6.73;;
15931;SDS011;8065;49.520;11.284;2023-09-12T12:00:51;7.57;;;6.63;;
15931;SDS011;8065;49.520;11.284;2023-09-12T12:03:24;10.03;;;7.33;;
15931;SDS011;8065;49.520;11.284;2023-09-12T12:05:53;9.30;;;6.63;;
15931;SDS011;8065;49.520;11.284;2023-09-12T12:08:22;9.97;;;7.17;;
15931;SDS011;8065;49.520;11.284;2023-09-12T12:10:51;10.47;;;7.30;;
15931;SDS011;8065;49.520;11.284;2023-09-12T12:13:20;9.37;;;7.27;;
15931;SDS011;8065;49.520;11.284;2023-09-12T12:15:49;9.93;;;6.83;;
15931;SDS011;8065;49.520;11.284;2023-09-12T12:18:18;9.17;;;7.60;;
15931;SDS011;8065;49.520;11.284;2023-09-12T12:20:49;8.90;;;7.43;;
15931;SDS011;8065;49.520;11.284;2023-09-12T12:23:17;9.20;;;6.67;;
15931;SDS011;8065;49.520;11.284;2023-09-12T12:25:46;8.43;;;7.23;;
15931;SDS011;8065;49.520;11.284;2023-09-12T12:28:15;8.63;;;7.13;;
15931;SDS011;8065;49.520;11.284;2023-09-12T12:30:44;8.67;;;7.67;;
15931;SDS011;8065;49.520;11.284;2023-09-12T12:33:12;9.93;;;7.47;;
15931;SDS011;8065;49.520;11.284;2023-09-12T12:35:40;12.00;;;7.57;;
15931;SDS011;8065;49.520;11.284;2023-09-12T12:38:11;12.13;;;7.83;;
15931;SDS011;8065;49.520;11.284;2023-09-12T12:40:40;8.63;;;7.20;;
15931;SDS011;8065;49.520;11.284;2023-09-12T12:43:15;11.43;;;7.57;;
15931;SDS011;8065;49.520;11.284;2023-09-12T12:45:51;9.13;;;7.43;;
15931;SDS011;8065;49.520;11.284;2023-09-12T12:48:29;8.03;;;7.33;;
15931;SDS011;8065;49.520;11.284;2023-09-12T12:50:58;10.70;;;8.23;;
15931;SDS011;8065;49.520;11.284;2023-09-12T12:56:18;8.77;;;7.80;;
15931;SDS011;8065;49.520;11.284;2023-09-12T12:58:48;8.90;;;7.47;;
15931;SDS011;8065;49.520;11.284;2023-09-12T13:01:16;9.43;;;7.80;;
15931;SDS011;8065;49.520;11.284;2023-09-12T13:03:45;11.67;;;8.30;;
15931;SDS011;8065;49.520;11.284;2023-09-12T13:06:15;8.53;;;7.73;;
15931;SDS011;8065;49.520;11.284;2023-09-12T13:08:45;9.80;;;8.27;;
15931;SDS011;8065;49.520;11.284;2023-09-12T13:11:17;9.57;;;8.57;;
15931;SDS011;8065;49.520;11.284;2023-09-12T13:13:45;10.00;;;8.33;;
15931;SDS011;8065;49.520;11.284;2023-09-12T13:16:16;11.77;;;8.30;;
15931;SDS011;8065;49.520;11.284;2023-09-12T13:18:44;10.03;;;8.30;;
15931;SDS011;8065;49.520;11.284;2023-09-12T13:21:13;10.90;;;8.70;;
15931;SDS011;8065;49.520;11.284;2023-09-12T13:23:41;9.87;;;7.90;;
15931;SDS011;8065;49.520;11.284;2023-09-12T13:26:09;9.63;;;8.07;;
15931;SDS011;8065;49.520;11.284;2023-09-12T13:28:40;10.93;;;8.40;;
15931;SDS011;8065;49.520;11.284;2023-09-12T13:31:09;9.50;;;8.70;;
15931;SDS011;8065;49.520;11.284;2023-09-12T13:33:37;11.27;;;8.70;;
15931;SDS011;8065;49.520;11.284;2023-09-12T13:36:07;9.43;;;8.50;;
15931;SDS011;8065;49.520;11.284;2023-09-12T13:38:35;10.93;;;8.10;;
15931;SDS011;8065;49.520;11.284;2023-09-12T13:41:03;9.23;;;8.20;;
15931;SDS011;8065;49.520;11.284;2023-09-12T13:43:32;10.30;;;8.10;;
15931;SDS011;8065;49.520;11.284;2023-09-12T13:46:03;11.27;;;8.77;;
15931;SDS011;8065;49.520;11.284;2023-09-12T13:48:34;11.17;;;8.13;;
15931;SDS011;8065;49.520;11.284;2023-09-12T13:51:03;9.57;;;8.57;;
15931;SDS011;8065;49.520;11.284;2023-09-12T13:53:31;11.67;;;7.80;;
15931;SDS011;8065;49.520;11.284;2023-09-12T13:55:59;11.63;;;8.80;;
15931;SDS011;8065;49.520;11.284;2023-09-12T13:58:28;9.23;;;7.47;;
15931;SDS011;8065;49.520;11.284;2023-09-12T14:00:56;11.87;;;8.13;;
15931;SDS011;8065;49.520;11.284;2023-09-12T14:03:27;11.53;;;8.60;;
15931;SDS011;8065;49.520;11.284;2023-09-12T14:05:55;9.27;;;8.00;;
15931;SDS011;8065;49.520;11.284;2023-09-12T14:08:23;15.93;;;8.87;;
15931;SDS011;8065;49.520;11.284;2023-09-12T14:10:51;9.40;;;8.47;;
15931;SDS011;8065;49.520;11.284;2023-09-12T14:13:20;9.63;;;8.60;;
15931;SDS011;8065;49.520;11.284;2023-09-12T14:15:48;11.13;;;8.23;;
15931;SDS011;8065;49.520;11.284;2023-09-12T14:18:17;9.63;;;8.07;;
15931;SDS011;8065;49.520;11.284;2023-09-12T14:20:50;10.60;;;8.60;;
15931;SDS011;8065;49.520;11.284;2023-09-12T14:23:18;10.77;;;8.27;;
15931;SDS011;8065;49.520;11.284;2023-09-12T14:25:46;9.20;;;7.93;;
15931;SDS011;8065;49.520;11.284;2023-09-12T14:28:15;9.67;;;8.37;;
15931;SDS011;8065;49.520;11.284;2023-09-12T14:30:43;9.13;;;8.10;;
15931;SDS011;8065;49.520;11.284;2023-09-12T14:33:13;13.13;;;8.50;;
15931;SDS011;8065;49.520;11.284;2023-09-12T14:35:42;10.87;;;8.10;;
15931;SDS011;8065;49.520;11.284;2023-09-12T14:38:13;12.47;;;8.17;;
15931;SDS011;8065;49.520;11.284;2023-09-12T14:40:42;8.60;;;7.70;;
15931;SDS011;8065;49.520;11.284;2023-09-12T14:43:10;9.90;;;8.60;;
15931;SDS011;8065;49.520;11.284;2023-09-12T14:45:39;8.87;;;8.07;;
15931;SDS011;8065;49.520;11.284;2023-09-12T14:48:07;8.80;;;8.03;;
15931;SDS011;8065;49.520;11.284;2023-09-12T14:50:35;11.70;;;8.87;;
15931;SDS011;8065;49.520;11.284;2023-09-12T14:53:03;10.10;;;8.10;;